createdAt,value
2023-03-21T00:06:52.912Z,18.7
2023-03-21T00:07:54.748Z,18.7
2023-03-21T00:08:56.598Z,18.8
2023-03-21T00:10:16.799Z,18.9
2023-03-21T00:26:39.122Z,18.7
2023-03-21T00:28:08.200Z,18.7
2023-03-21T00:29:10.654Z,18.9
2023-03-21T00:30:12.466Z,18.9
2023-03-21T00:31:14.349Z,19
2023-03-21T00:32:16.309Z,19.1
2023-03-21T00:33:23.127Z,19.2
2023-03-21T00:34:54.710Z,19.3
2023-03-21T00:37:07.636Z,19.3
2023-03-21T00:38:09.583Z,19.3
2023-03-21T00:39:11.324Z,19.3
2023-03-21T00:40:32.871Z,19.3
2023-03-21T00:41:50.728Z,19.4
2023-03-21T00:42:52.819Z,19.3
2023-03-21T00:43:54.783Z,19.4
2023-03-21T00:44:56.548Z,19.4
2023-03-21T00:45:58.277Z,19.4
2023-03-21T00:47:08.210Z,19.5
2023-03-21T00:48:10.479Z,19.5
2023-03-21T00:49:12.527Z,19.5
2023-03-21T00:50:14.479Z,19.5
2023-03-21T00:51:16.331Z,19.5
2023-03-21T00:52:40.048Z,19.6
2023-03-21T00:53:43.184Z,19.6
2023-03-21T00:54:45.024Z,19.6
2023-03-21T00:55:46.864Z,19.6
2023-03-21T00:56:48.623Z,19.6
2023-03-21T00:58:02.638Z,19.6
2023-03-21T00:59:04.505Z,19.6
2023-03-21T01:00:06.468Z,19.6
2023-03-21T01:01:08.605Z,19.6
2023-03-21T01:02:10.611Z,19.6
2023-03-21T01:03:25.657Z,19.7
2023-03-21T01:04:27.582Z,19.7
2023-03-21T01:05:29.463Z,19.7
2023-03-21T01:06:31.276Z,19.7
2023-03-21T01:07:33.128Z,19.7
2023-03-21T01:08:52.902Z,19.7
2023-03-21T01:09:55.340Z,19.7
2023-03-21T01:10:57.524Z,19.7
2023-03-21T01:11:59.374Z,19.7
2023-03-21T01:13:01.333Z,19.7
2023-03-21T01:14:24.200Z,19.7
2023-03-21T01:15:26.026Z,19.7
2023-03-21T01:16:28.131Z,19.7
2023-03-21T01:17:30.324Z,19.7
2023-03-21T01:18:32.179Z,19.7
2023-03-21T01:19:51.833Z,19.7
2023-03-21T01:20:54.331Z,19.7
2023-03-21T01:21:56.266Z,19.7
2023-03-21T01:22:58.114Z,19.7
2023-03-21T01:23:59.860Z,19.7
2023-03-21T01:25:22.523Z,19.7
2023-03-21T01:26:24.889Z,19.7
2023-03-21T01:27:26.827Z,19.7
2023-03-21T01:28:28.538Z,19.7
2023-03-21T01:29:30.536Z,19.7
2023-03-21T01:30:42.058Z,19.7
2023-03-21T01:31:44.283Z,19.8
2023-03-21T01:32:46.608Z,19.8
2023-03-21T01:33:48.484Z,19.8
2023-03-21T01:34:50.305Z,19.8
2023-03-21T01:36:11.977Z,19.8
2023-03-21T01:37:16.640Z,19.8
2023-03-21T01:38:18.481Z,19.8
2023-03-21T01:39:20.338Z,19.8
2023-03-21T01:40:22.188Z,19.8
2023-03-21T01:41:40.382Z,19.8
2023-03-21T01:42:46.573Z,19.8
2023-03-21T01:43:48.426Z,19.8
2023-03-21T01:44:50.296Z,19.8
2023-03-21T01:45:52.300Z,19.8
2023-03-21T01:47:11.801Z,19.9
2023-03-21T01:48:14.708Z,19.9
2023-03-21T01:49:16.821Z,19.9
2023-03-21T01:50:18.677Z,19.9
2023-03-21T01:51:20.539Z,19.9
2023-03-21T01:52:38.194Z,19.9
2023-03-21T01:53:41.317Z,19.9
2023-03-21T01:54:43.388Z,19.9
2023-03-21T01:55:45.221Z,19.9
2023-03-21T01:56:47.078Z,19.9
2023-03-21T01:58:06.589Z,19.9
2023-03-21T01:59:09.308Z,19.9
2023-03-21T02:00:11.192Z,19.9
2023-03-21T02:01:13.165Z,19.9
2023-03-21T02:02:15.381Z,19.9
2023-03-21T02:03:35.900Z,19.9
2023-03-21T02:04:38.627Z,19.9
2023-03-21T02:05:40.516Z,19.9
2023-03-21T02:06:42.434Z,19.9
2023-03-21T02:07:44.133Z,19.9
2023-03-21T02:08:46.036Z,20
2023-03-21T02:09:47.957Z,20
2023-03-21T02:10:50.866Z,20
2023-03-21T02:11:52.604Z,20
2023-03-21T02:12:54.553Z,20
2023-03-21T02:14:07.908Z,20
2023-03-21T02:15:12.998Z,20
2023-03-21T02:16:14.992Z,20
2023-03-21T02:17:17.232Z,20
2023-03-21T02:18:19.176Z,20
2023-03-21T02:19:37.291Z,20
2023-03-21T02:20:55.234Z,20
2023-03-21T02:21:56.980Z,20
2023-03-21T02:22:58.793Z,20
2023-03-21T02:24:00.689Z,20
2023-03-21T02:25:21.134Z,20
2023-03-21T02:26:33.330Z,20
2023-03-21T02:27:47.971Z,20
2023-03-21T02:28:49.959Z,20
2023-03-21T02:29:51.801Z,20
2023-03-21T02:30:54.734Z,20
2023-03-21T02:32:18.064Z,20
2023-03-21T02:33:39.643Z,20
2023-03-21T02:34:41.613Z,20
2023-03-21T02:35:55.387Z,20
2023-03-21T02:37:18.011Z,20
2023-03-21T02:38:19.917Z,20
2023-03-21T02:39:21.876Z,20
2023-03-21T02:40:23.830Z,20
2023-03-21T02:41:39.972Z,20.1
2023-03-21T02:42:51.755Z,20.1
2023-03-21T02:44:03.069Z,20.1
2023-03-21T02:45:04.925Z,20.1
2023-03-21T02:46:06.774Z,20.1
2023-03-21T02:47:09.101Z,20.1
2023-03-21T02:48:29.485Z,20.1
2023-03-21T02:49:52.552Z,20.1
2023-03-21T02:50:54.405Z,20.1
2023-03-21T02:52:12.101Z,20.1
2023-03-21T02:53:37.326Z,20.1
2023-03-21T02:54:48.896Z,20.1
2023-03-21T02:55:50.764Z,20.1
2023-03-21T02:56:52.812Z,20.1
2023-03-21T02:57:54.705Z,20.1
2023-03-21T02:58:58.249Z,20.2
2023-03-21T03:00:16.049Z,20.2
2023-03-21T03:01:19.704Z,20.2
2023-03-21T03:02:21.727Z,20.2
2023-03-21T03:03:35.030Z,20.2
2023-03-21T03:04:37.177Z,20.2
2023-03-21T03:05:39.457Z,20.2
2023-03-21T03:06:41.210Z,20.2
2023-03-21T03:07:43.056Z,20.2
2023-03-21T03:09:02.517Z,20.2
2023-03-21T03:10:04.978Z,20.2
2023-03-21T03:11:06.938Z,20.2
2023-03-21T03:12:08.665Z,20.2
2023-03-21T03:13:10.528Z,20.2
2023-03-21T03:14:49.740Z,20.3
2023-03-21T03:16:06.186Z,20.2
2023-03-21T03:17:08.427Z,20.2
2023-03-21T03:18:10.157Z,20.2
2023-03-21T03:19:12.043Z,20.2
2023-03-21T03:20:17.724Z,20.2
2023-03-21T03:21:19.702Z,20.2
2023-03-21T03:22:21.662Z,20.3
2023-03-21T03:23:23.518Z,20.3
2023-03-21T03:24:25.350Z,20.3
2023-03-21T03:25:43.404Z,20.3
2023-03-21T03:26:45.542Z,20.3
2023-03-21T03:27:47.401Z,20.3
2023-03-21T03:28:49.337Z,20.3
2023-03-21T03:29:51.304Z,20.3
2023-03-21T03:31:09.860Z,20.3
2023-03-21T03:32:13.205Z,20.3
2023-03-21T03:33:15.083Z,20.3
2023-03-21T03:34:16.951Z,20.3
2023-03-21T03:35:18.882Z,20.3
2023-03-21T03:36:33.806Z,20.3
2023-03-21T03:37:35.784Z,20.3
2023-03-21T03:38:37.738Z,20.3
2023-03-21T03:39:39.585Z,20.3
2023-03-21T03:40:42.056Z,20.3
2023-03-21T03:42:25.224Z,20.3
2023-03-21T03:43:30.826Z,20.3
2023-03-21T03:44:32.752Z,20.3
2023-03-21T03:45:34.624Z,20.2
2023-03-21T03:46:36.633Z,20.3
2023-03-21T03:47:56.635Z,20.3
2023-03-21T03:48:59.611Z,20.3
2023-03-21T03:50:01.486Z,20.3
2023-03-21T03:51:03.418Z,20.3
2023-03-21T03:52:05.402Z,20.4
2023-03-21T03:53:18.718Z,20.4
2023-03-21T03:54:20.862Z,20.4
2023-03-21T03:55:22.702Z,20.8
2023-03-21T03:56:24.551Z,20.9
2023-03-21T03:57:26.503Z,20.9
2023-03-21T03:58:46.082Z,20.9
2023-03-21T03:59:48.118Z,21
2023-03-21T04:00:50.069Z,21.1
2023-03-21T04:01:52.152Z,21
2023-03-21T04:02:54.321Z,21.1
2023-03-21T04:04:13.410Z,21.1
2023-03-21T04:05:15.837Z,21.2
2023-03-21T04:06:17.671Z,21.2
2023-03-21T04:07:19.489Z,21.2
2023-03-21T04:08:21.461Z,21.3
2023-03-21T04:09:42.973Z,21.4
2023-03-21T04:10:46.756Z,21.6
2023-03-21T04:11:48.618Z,21.6
2023-03-21T04:12:50.465Z,21.6
2023-03-21T04:13:52.215Z,21.6
2023-03-21T04:15:08.067Z,21.6
2023-03-21T04:16:13.301Z,21.5
2023-03-21T04:17:15.276Z,21.4
2023-03-21T04:18:17.327Z,21.3
2023-03-21T04:19:19.175Z,21.3
2023-03-21T04:20:37.364Z,21.3
2023-03-21T04:21:39.231Z,21.3
2023-03-21T04:22:41.115Z,21.2
2023-03-21T04:23:42.934Z,21.3
2023-03-21T04:24:44.858Z,21.3
2023-03-21T04:25:57.362Z,21.3
2023-03-21T04:26:59.277Z,21.3
2023-03-21T04:28:01.133Z,21.3
2023-03-21T04:29:02.966Z,21.3
2023-03-21T04:30:04.823Z,21.3
2023-03-21T04:31:24.345Z,21.4
2023-03-21T04:32:27.942Z,21.4
2023-03-21T04:33:29.933Z,21.4
2023-03-21T04:34:31.780Z,21.4
2023-03-21T04:35:34.564Z,21.4
2023-03-21T04:36:39.800Z,21.3
2023-03-21T04:37:41.629Z,21.3
2023-03-21T04:38:43.471Z,21.3
2023-03-21T04:39:45.317Z,21.3
2023-03-21T04:40:47.283Z,21.3
2023-03-21T04:41:49.236Z,21.4
2023-03-21T04:42:51.071Z,21.4
2023-03-21T04:43:52.907Z,21.5
2023-03-21T04:44:56.126Z,21.5
2023-03-21T04:45:58.201Z,21.4
2023-03-21T04:47:00.213Z,21.5
2023-03-21T04:48:02.095Z,21.4
2023-03-21T04:49:04.016Z,21.4
2023-03-21T04:50:05.868Z,21.4
2023-03-21T04:51:07.628Z,21.5
2023-03-21T04:52:09.498Z,21.6
2023-03-21T04:53:11.431Z,21.6
2023-03-21T04:54:13.246Z,21.6
2023-03-21T04:55:15.218Z,21.7
2023-03-21T04:56:17.078Z,21.7
2023-03-21T04:57:18.812Z,21.8
2023-03-21T04:58:20.661Z,21.9
2023-03-21T04:59:22.626Z,21.8
2023-03-21T05:00:24.480Z,21.7
2023-03-21T05:01:26.343Z,21.7
2023-03-21T05:02:28.277Z,21.7
2023-03-21T05:03:32.317Z,21.7
2023-03-21T05:04:34.955Z,21.8
2023-03-21T05:05:37.605Z,21.8
2023-03-21T05:06:40.477Z,21.9
2023-03-21T05:07:42.461Z,22.1
2023-03-21T05:08:44.484Z,22.1
2023-03-21T05:09:46.335Z,22.3
2023-03-21T05:10:48.392Z,22.3
2023-03-21T05:11:50.256Z,22.2
2023-03-21T05:12:52.070Z,22.3
2023-03-21T05:13:54.151Z,22.4
2023-03-21T05:14:56.126Z,22.4
2023-03-21T05:15:57.949Z,22.6
2023-03-21T05:16:59.946Z,22.5
2023-03-21T05:18:02.158Z,22.4
2023-03-21T05:19:04.086Z,22.3
2023-03-21T05:20:06.073Z,22.3
2023-03-21T05:21:07.978Z,22.4
2023-03-21T05:22:09.872Z,22.3
2023-03-21T05:23:11.804Z,22.3
2023-03-21T05:24:13.670Z,22.4
2023-03-21T05:25:15.529Z,22.3
2023-03-21T05:26:17.471Z,22.3
2023-03-21T05:27:19.534Z,22.3
2023-03-21T05:28:21.290Z,22.2
2023-03-21T05:29:23.332Z,22.5
2023-03-21T05:30:25.373Z,22.3
2023-03-21T05:31:27.243Z,22.3
2023-03-21T05:32:29.091Z,22.3
2023-03-21T05:33:30.935Z,22.3
2023-03-21T05:34:32.800Z,22.3
2023-03-21T05:35:34.796Z,22.3
2023-03-21T05:36:37.413Z,22.2
2023-03-21T05:37:39.366Z,22.3
2023-03-21T05:38:41.134Z,22.3
2023-03-21T05:39:42.857Z,22.2
2023-03-21T05:40:44.700Z,22.4
2023-03-21T05:41:46.538Z,22.4
2023-03-21T05:42:48.510Z,22.4
2023-03-21T05:43:50.260Z,22.3
2023-03-21T05:44:52.111Z,22.4
2023-03-21T05:45:54.077Z,22.3
2023-03-21T05:46:56.121Z,22.2
2023-03-21T05:47:58.099Z,22.2
2023-03-21T05:49:00.122Z,22.3
2023-03-21T05:50:02.079Z,22.2
2023-03-21T05:51:03.936Z,22.3
2023-03-21T05:52:05.793Z,22.2
2023-03-21T05:53:07.626Z,22.2
2023-03-21T05:54:09.503Z,22.2
2023-03-21T05:55:11.639Z,22.2
2023-03-21T05:56:13.586Z,22.2
2023-03-21T05:57:15.523Z,22.2
2023-03-21T05:58:17.497Z,22.3
2023-03-21T05:59:19.357Z,22.4
2023-03-21T06:00:21.205Z,22.4
2023-03-21T06:01:23.250Z,22.2
2023-03-21T06:02:25.198Z,22.2
2023-03-21T06:03:27.280Z,22.2
2023-03-21T06:04:29.378Z,22.2
2023-03-21T06:05:31.263Z,22.1
2023-03-21T06:06:33.206Z,22.1
2023-03-21T06:07:35.163Z,22.1
2023-03-21T06:08:37.019Z,22.1
2023-03-21T06:09:38.884Z,22.2
2023-03-21T06:10:40.830Z,22.1
2023-03-21T06:11:42.675Z,22.1
2023-03-21T06:12:44.570Z,22.1
2023-03-21T06:13:46.567Z,22.1
2023-03-21T06:14:48.421Z,22.1
2023-03-21T06:15:50.304Z,22.2
2023-03-21T06:16:52.325Z,22.1
2023-03-21T06:17:54.200Z,22.2
2023-03-21T06:18:56.127Z,22.2
2023-03-21T06:19:58.079Z,22.2
2023-03-21T06:20:59.895Z,22.1
2023-03-21T06:22:01.675Z,22.2
2023-03-21T06:23:03.533Z,22.2
2023-03-21T06:24:05.350Z,22.3
2023-03-21T06:25:07.220Z,22.2
2023-03-21T06:26:09.203Z,22.2
2023-03-21T06:27:11.205Z,22.3
2023-03-21T06:28:13.209Z,22.3
2023-03-21T06:29:15.044Z,22.2
2023-03-21T06:30:16.890Z,22.2
2023-03-21T06:31:18.743Z,22.2
2023-03-21T06:32:20.597Z,22.2
2023-03-21T06:33:22.322Z,22.2
2023-03-21T06:34:24.193Z,22.3
2023-03-21T06:35:26.262Z,22.2
2023-03-21T06:36:28.098Z,22.2
2023-03-21T06:37:29.941Z,22.1
2023-03-21T06:38:31.791Z,22.1
2023-03-21T06:39:33.644Z,22.3
2023-03-21T06:40:35.626Z,22.4
2023-03-21T06:41:37.446Z,22.4
2023-03-21T06:42:39.387Z,22.2
2023-03-21T06:43:41.246Z,22.2
2023-03-21T06:44:43.219Z,22.2
2023-03-21T06:45:45.058Z,22.1
2023-03-21T06:46:47.159Z,22.2
2023-03-21T06:47:49.194Z,22.2
2023-03-21T06:48:51.416Z,22.1
2023-03-21T06:49:53.175Z,22.2
2023-03-21T06:50:54.922Z,22.2
2023-03-21T06:51:57.149Z,22.2
2023-03-21T06:52:59.251Z,22.1
2023-03-21T06:54:01.384Z,22.1
2023-03-21T06:55:03.188Z,22.2
2023-03-21T06:56:05.117Z,22.2
2023-03-21T06:57:06.946Z,22.1
2023-03-21T06:58:08.991Z,22.1
2023-03-21T06:59:10.938Z,22.1
2023-03-21T07:00:12.865Z,22.1
2023-03-21T07:01:14.925Z,22.2
2023-03-21T07:02:17.177Z,22.2
2023-03-21T07:03:19.129Z,22.2
2023-03-21T07:04:20.881Z,22.3
2023-03-21T07:05:22.760Z,22.2
2023-03-21T07:06:24.498Z,22.2
2023-03-21T07:07:26.569Z,22.2
2023-03-21T07:08:28.536Z,22.3
2023-03-21T07:09:30.597Z,22.4
2023-03-21T07:10:32.424Z,22.5
2023-03-21T07:11:34.259Z,22.3
2023-03-21T07:12:36.178Z,22.3
2023-03-21T07:13:37.976Z,22.2
2023-03-21T07:14:39.933Z,22.1
2023-03-21T07:15:41.781Z,22.1
2023-03-21T07:16:43.782Z,22.2
2023-03-21T07:17:45.854Z,22.2
2023-03-21T07:18:47.735Z,22.3
2023-03-21T07:19:49.496Z,22.4
2023-03-21T07:20:51.440Z,22.5
2023-03-21T07:21:53.290Z,22.3
2023-03-21T07:22:55.152Z,22.3
2023-03-21T07:23:57.008Z,22.3
2023-03-21T07:25:05.733Z,22.4
2023-03-21T07:26:07.841Z,22.5
2023-03-21T07:27:09.820Z,22.3
2023-03-21T07:28:11.665Z,22.3
2023-03-21T07:29:13.506Z,22.3
2023-03-21T07:30:15.417Z,22.3
2023-03-21T07:31:17.688Z,22.5
2023-03-21T07:32:19.771Z,22.5
2023-03-21T07:33:21.532Z,22.5
2023-03-21T07:34:23.340Z,22.5
2023-03-21T07:35:25.176Z,22.6
2023-03-21T07:36:27.090Z,22.4
2023-03-21T07:37:29.015Z,22.5
2023-03-21T07:38:30.879Z,22.4
2023-03-21T07:39:32.827Z,22.4
2023-03-21T07:40:34.794Z,22.3
2023-03-21T07:41:36.652Z,22.6
2023-03-21T07:42:38.705Z,22.4
2023-03-21T07:43:40.519Z,22.3
2023-03-21T07:44:42.492Z,22.2
2023-03-21T07:45:44.556Z,22.2
2023-03-21T07:46:46.461Z,22.5
2023-03-21T07:47:48.471Z,22.6
2023-03-21T07:48:50.703Z,22.5
2023-03-21T07:49:52.761Z,22.4
2023-03-21T07:50:54.919Z,22.4
2023-03-21T07:51:56.864Z,22.6
2023-03-21T07:52:58.705Z,22.4
2023-03-21T07:54:00.588Z,22.5
2023-03-21T07:55:02.512Z,22.4
2023-03-21T07:56:04.487Z,22.5
2023-03-21T07:57:06.418Z,22.4
2023-03-21T07:58:08.320Z,22.5
2023-03-21T07:59:10.464Z,22.4
2023-03-21T08:00:12.382Z,22.5
2023-03-21T08:01:14.223Z,22.5
2023-03-21T08:02:16.272Z,22.6
2023-03-21T08:03:18.286Z,22.4
2023-03-21T08:04:20.150Z,22.6
2023-03-21T08:05:22.051Z,22.7
2023-03-21T08:06:23.994Z,22.5
2023-03-21T08:07:25.847Z,22.6
2023-03-21T08:08:27.688Z,22.7
2023-03-21T08:09:31.381Z,22.4
2023-03-21T08:10:33.334Z,22.3
2023-03-21T08:11:35.194Z,22.3
2023-03-21T08:12:37.133Z,22.3
2023-03-21T08:13:39.139Z,22.4
2023-03-21T08:14:40.936Z,22.4
2023-03-21T08:15:42.933Z,22.3
2023-03-21T08:16:44.882Z,22.4
2023-03-21T08:17:46.816Z,22.7
2023-03-21T08:18:48.656Z,22.5
2023-03-21T08:19:50.595Z,22.5
2023-03-21T08:20:52.451Z,22.5
2023-03-21T08:21:54.442Z,22.5
2023-03-21T08:22:56.255Z,22.7
2023-03-21T08:23:58.123Z,22.8
2023-03-21T08:25:00.030Z,22.6
2023-03-21T08:26:01.905Z,22.6
2023-03-21T08:27:03.775Z,22.6
2023-03-21T08:28:05.710Z,22.6
2023-03-21T08:29:07.581Z,22.5
2023-03-21T08:30:09.415Z,22.5
2023-03-21T08:31:11.643Z,22.6
2023-03-21T08:32:13.728Z,23.2
2023-03-21T08:33:15.580Z,22.6
2023-03-21T08:34:17.323Z,22.5
2023-03-21T08:35:19.272Z,22.6
2023-03-21T08:36:21.249Z,22.6
2023-03-21T08:37:23.281Z,22.6
2023-03-21T08:38:25.096Z,22.6
2023-03-21T08:39:27.193Z,22.7
2023-03-21T08:40:29.264Z,22.5
2023-03-21T08:41:31.189Z,22.6
2023-03-21T08:42:33.040Z,22.6
2023-03-21T08:43:34.951Z,22.6
2023-03-21T08:44:36.876Z,22.5
2023-03-21T08:45:39.351Z,22.3
2023-03-21T08:46:42.231Z,22.3
2023-03-21T08:47:44.308Z,22.3
2023-03-21T08:48:46.420Z,22.3
2023-03-21T08:49:48.352Z,22.3
2023-03-21T08:50:50.087Z,22.3
2023-03-21T08:51:51.845Z,22.3
2023-03-21T08:52:53.802Z,22.3
2023-03-21T08:53:55.641Z,22.2
2023-03-21T08:54:57.694Z,22.4
2023-03-21T08:55:59.481Z,22.3
2023-03-21T08:57:01.308Z,22.5
2023-03-21T08:58:03.459Z,22.4
2023-03-21T08:59:05.299Z,22.5
2023-03-21T09:00:07.190Z,22.4
2023-03-21T09:01:09.026Z,22.3
2023-03-21T09:02:11.191Z,22.2
2023-03-21T09:03:13.218Z,22.3
2023-03-21T09:04:15.337Z,22.3
2023-03-21T09:05:17.387Z,22.1
2023-03-21T09:06:19.395Z,22.3
2023-03-21T09:07:21.131Z,22.3
2023-03-21T09:08:22.954Z,22.2
2023-03-21T09:09:24.848Z,22.2
2023-03-21T09:10:27.005Z,22.2
2023-03-21T09:11:28.943Z,22.2
2023-03-21T09:12:30.684Z,22.2
2023-03-21T09:13:32.546Z,22.2
2023-03-21T09:14:34.504Z,22.2
2023-03-21T09:15:36.924Z,22.4
2023-03-21T09:16:39.894Z,22
2023-03-21T09:17:41.551Z,22.3
2023-03-21T09:18:43.230Z,22.1
2023-03-21T09:19:45.069Z,22.1
2023-03-21T09:20:46.925Z,22
2023-03-21T09:21:48.772Z,21.8
2023-03-21T09:22:50.616Z,21.9
2023-03-21T09:23:52.471Z,21.9
2023-03-21T09:24:54.389Z,21.8
2023-03-21T09:25:56.299Z,21.7
2023-03-21T09:26:58.036Z,21.7
2023-03-21T09:27:59.873Z,21.7
2023-03-21T09:29:01.612Z,22
2023-03-21T09:30:03.571Z,21.9
2023-03-21T09:31:05.616Z,21.9
2023-03-21T09:32:07.683Z,22
2023-03-21T09:33:09.435Z,22
2023-03-21T09:34:11.378Z,21.9
2023-03-21T09:35:13.136Z,21.9
2023-03-21T09:36:15.112Z,22
2023-03-21T09:37:17.157Z,22.1
2023-03-21T09:38:18.946Z,22.3
2023-03-21T09:39:20.726Z,22.2
2023-03-21T09:40:22.590Z,21.9
2023-03-21T09:41:24.427Z,22.2
2023-03-21T09:42:26.491Z,22.1
2023-03-21T09:43:28.445Z,22
2023-03-21T09:44:30.290Z,21.9
2023-03-21T09:45:32.146Z,21.9
2023-03-21T09:46:34.149Z,21.9
2023-03-21T09:47:36.182Z,21.9
2023-03-21T09:48:56.355Z,21.9
2023-03-21T09:50:15.212Z,21.9
2023-03-21T09:51:17.127Z,21.8
2023-03-21T09:52:19.074Z,21.7
2023-03-21T09:53:20.904Z,21.7
2023-03-21T09:54:22.694Z,21.7
2023-03-21T09:55:24.474Z,21.8
2023-03-21T09:56:26.333Z,21.6
2023-03-21T09:57:28.322Z,21.7
2023-03-21T09:58:30.191Z,21.7
2023-03-21T09:59:33.929Z,21.7
2023-03-21T10:00:35.846Z,21.8
2023-03-21T10:01:40.875Z,22
2023-03-21T10:02:42.709Z,21.9
2023-03-21T10:03:44.658Z,21.8
2023-03-21T10:04:46.619Z,22.1
2023-03-21T10:05:48.857Z,22.1
2023-03-21T10:06:50.836Z,22.2
2023-03-21T10:07:52.668Z,22.1
2023-03-21T10:08:57.286Z,22
2023-03-21T10:09:59.101Z,21.8
2023-03-21T10:11:00.781Z,21.8
2023-03-21T10:12:02.699Z,21.7
2023-03-21T10:13:04.383Z,21.7
2023-03-21T10:14:06.226Z,21.7
2023-03-21T10:15:08.270Z,21.8
2023-03-21T10:16:10.191Z,21.8
2023-03-21T10:17:12.202Z,21.8
2023-03-21T10:18:14.031Z,21.8
2023-03-21T10:19:15.977Z,21.8
2023-03-21T10:20:17.870Z,21.8
2023-03-21T10:22:00.097Z,21.8
2023-03-21T10:23:05.875Z,21.7
2023-03-21T10:24:07.620Z,21.7
2023-03-21T10:25:09.436Z,21.7
2023-03-21T10:26:16.898Z,21.7
2023-03-21T10:27:21.793Z,21.6
2023-03-21T10:28:23.625Z,21.8
2023-03-21T10:29:25.653Z,21.7
2023-03-21T10:30:27.841Z,21.7
2023-03-21T10:31:29.829Z,21.7
2023-03-21T10:32:32.227Z,21.7
2023-03-21T10:33:34.302Z,21.7
2023-03-21T10:34:36.159Z,21.7
2023-03-21T10:35:38.695Z,21.8
2023-03-21T10:36:41.913Z,21.7
2023-03-21T10:37:43.760Z,21.6
2023-03-21T10:38:45.610Z,21.6
2023-03-21T10:39:47.462Z,21.6
2023-03-21T10:40:49.411Z,21.6
2023-03-21T10:41:51.147Z,21.6
2023-03-21T10:42:53.003Z,21.5
2023-03-21T10:43:54.764Z,21.5
2023-03-21T10:44:56.716Z,21.6
2023-03-21T10:45:58.861Z,21.4
2023-03-21T10:47:01.370Z,21.5
2023-03-21T10:48:04.319Z,22.1
2023-03-21T10:49:06.966Z,21.9
2023-03-21T10:50:11.397Z,21.9
2023-03-21T10:51:13.954Z,21.8
2023-03-21T10:52:15.760Z,21.6
2023-03-21T10:53:17.765Z,21.5
2023-03-21T10:54:19.701Z,21.4
2023-03-21T10:55:21.711Z,21.4
2023-03-21T10:56:23.811Z,21.4
2023-03-21T10:57:25.761Z,21.4
2023-03-21T10:58:27.616Z,21.3
2023-03-21T10:59:29.569Z,21.3
2023-03-21T11:00:31.444Z,21.2
2023-03-21T11:01:33.629Z,21.2
2023-03-21T11:02:35.994Z,21.5
2023-03-21T11:03:38.223Z,21.6
2023-03-21T11:04:40.041Z,21.5
2023-03-21T11:05:42.629Z,21.8
2023-03-21T11:06:44.365Z,21.4
2023-03-21T11:07:46.212Z,21.4
2023-03-21T11:08:48.067Z,21.5
2023-03-21T11:09:53.765Z,21.4
2023-03-21T11:10:55.652Z,21.4
2023-03-21T11:11:57.506Z,21.5
2023-03-21T11:12:59.355Z,21.7
2023-03-21T11:14:01.331Z,21.7
2023-03-21T11:15:03.178Z,21.8
2023-03-21T11:16:05.017Z,21.6
2023-03-21T11:17:06.991Z,22.1
2023-03-21T11:18:08.992Z,21.7
2023-03-21T11:19:10.903Z,21.7
2023-03-21T11:20:12.723Z,21.6
2023-03-21T11:21:14.477Z,21.8
2023-03-21T11:22:16.327Z,21.7
2023-03-21T11:23:21.147Z,21.7
2023-03-21T11:24:23.019Z,21.6
2023-03-21T11:25:24.849Z,21.6
2023-03-21T11:26:26.686Z,21.7
2023-03-21T11:27:28.436Z,22
2023-03-21T11:28:30.298Z,21.7
2023-03-21T11:29:32.208Z,21.6
2023-03-21T11:30:34.241Z,21.7
2023-03-21T11:31:36.352Z,21.6
2023-03-21T11:32:38.240Z,22
2023-03-21T11:33:40.152Z,22.3
2023-03-21T11:34:41.917Z,22.5
2023-03-21T11:35:43.658Z,22.4
2023-03-21T11:36:45.719Z,22.2
2023-03-21T11:37:47.531Z,22.2
2023-03-21T11:38:49.506Z,22.2
2023-03-21T11:39:51.464Z,22.1
2023-03-21T11:40:53.304Z,22
2023-03-21T11:41:55.165Z,21.9
2023-03-21T11:42:57.034Z,21.7
2023-03-21T11:43:59.172Z,21.6
2023-03-21T11:45:00.982Z,21.6
2023-03-21T11:46:03.003Z,21.5
2023-03-21T11:47:05.028Z,22.2
2023-03-21T11:48:07.034Z,22
2023-03-21T11:49:09.023Z,22.2
2023-03-21T11:50:10.904Z,22.2
2023-03-21T11:51:12.928Z,22.1
2023-03-21T11:52:14.685Z,22.1
2023-03-21T11:53:16.531Z,22
2023-03-21T11:54:18.364Z,22.1
2023-03-21T11:55:20.139Z,22.1
2023-03-21T11:56:22.076Z,22
2023-03-21T11:57:23.933Z,22
2023-03-21T11:58:26.032Z,22.1
2023-03-21T11:59:28.125Z,21.9
2023-03-21T12:00:30.089Z,21.9
2023-03-21T12:01:32.059Z,22.1
2023-03-21T12:02:34.169Z,22.1
2023-03-21T12:03:48.987Z,22
2023-03-21T12:04:51.190Z,21.9
2023-03-21T12:05:53.097Z,22.2
2023-03-21T12:06:55.029Z,22
2023-03-21T12:07:57.085Z,21.7
2023-03-21T12:08:58.928Z,21.8
2023-03-21T12:10:00.764Z,21.8
2023-03-21T12:11:02.526Z,21.7
2023-03-21T12:12:04.469Z,21.7
2023-03-21T12:13:06.324Z,21.6
2023-03-21T12:14:08.171Z,21.7
2023-03-21T12:15:10.021Z,21.8
2023-03-21T12:16:12.183Z,21.8
2023-03-21T12:17:14.244Z,21.8
2023-03-21T12:18:15.988Z,21.8
2023-03-21T12:19:17.828Z,21.6
2023-03-21T12:20:19.664Z,21.8
2023-03-21T12:21:21.568Z,21.9
2023-03-21T12:22:23.490Z,22
2023-03-21T12:23:25.644Z,21.9
2023-03-21T12:24:27.812Z,21.9
2023-03-21T12:25:29.643Z,21.9
2023-03-21T12:26:31.615Z,21.8
2023-03-21T12:27:33.459Z,21.9
2023-03-21T12:28:35.414Z,22
2023-03-21T12:29:37.260Z,21.8
2023-03-21T12:30:39.126Z,21.6
2023-03-21T12:31:41.102Z,21.9
2023-03-21T12:32:43.038Z,22.1
2023-03-21T12:33:44.879Z,21.8
2023-03-21T12:34:46.713Z,21.3
2023-03-21T12:35:48.690Z,21.7
2023-03-21T12:36:50.688Z,21.4
2023-03-21T12:37:56.032Z,21.7
2023-03-21T12:38:59.817Z,21.7
2023-03-21T12:40:01.694Z,21.7
2023-03-21T12:41:03.768Z,21.6
2023-03-21T12:42:05.911Z,21.6
2023-03-21T12:43:07.812Z,21.6
2023-03-21T12:44:09.643Z,21.6
2023-03-21T12:45:16.135Z,21.5
2023-03-21T12:46:18.227Z,21.6
2023-03-21T12:47:20.057Z,21.5
2023-03-21T12:48:21.991Z,21.5
2023-03-21T12:49:24.082Z,21.5
2023-03-21T12:50:26.043Z,21.4
2023-03-21T12:51:28.099Z,21.4
2023-03-21T12:52:30.060Z,21.3
2023-03-21T12:53:31.984Z,21.3
2023-03-21T12:54:33.831Z,21.3
2023-03-21T12:55:35.810Z,21.2
2023-03-21T12:56:38.468Z,21.2
2023-03-21T12:57:56.751Z,21.2
2023-03-21T12:58:59.779Z,21.1
2023-03-21T13:00:01.653Z,21.1
2023-03-21T13:01:03.725Z,21.1
2023-03-21T13:02:05.736Z,21.1
2023-03-21T13:03:07.694Z,21.1
2023-03-21T13:04:09.691Z,21
2023-03-21T13:05:11.596Z,21
2023-03-21T13:06:13.672Z,21
2023-03-21T13:07:15.370Z,20.9
2023-03-21T13:08:17.357Z,20.9
2023-03-21T13:09:35.160Z,20.8
2023-03-21T13:10:40.715Z,20.8
2023-03-21T13:11:42.650Z,20.7
2023-03-21T13:12:44.376Z,20.8
2023-03-21T13:13:46.365Z,20.7
2023-03-21T13:14:48.300Z,20.8
2023-03-21T13:15:50.054Z,20.8
2023-03-21T13:16:52.009Z,20.9
2023-03-21T13:17:53.867Z,20.8
2023-03-21T13:18:55.679Z,20.9
2023-03-21T13:19:57.560Z,20.9
2023-03-21T13:20:59.413Z,20.9
2023-03-21T13:22:01.478Z,20.9
2023-03-21T13:23:03.321Z,21
2023-03-21T13:24:05.286Z,21
2023-03-21T13:25:07.112Z,21
2023-03-21T13:26:08.822Z,21
2023-03-21T13:27:10.820Z,20.9
2023-03-21T13:28:12.668Z,20.9
2023-03-21T13:29:14.477Z,20.9
2023-03-21T13:30:16.583Z,20.9
2023-03-21T13:31:18.882Z,20.9
2023-03-21T13:32:21.207Z,20.9
2023-03-21T13:33:23.127Z,20.9
2023-03-21T13:34:24.856Z,20.8
2023-03-21T13:35:26.745Z,20.9
2023-03-21T13:36:28.493Z,20.8
2023-03-21T13:37:30.546Z,20.7
2023-03-21T13:38:32.398Z,20.7
2023-03-21T13:39:34.373Z,20.6
2023-03-21T13:40:37.034Z,20.8
2023-03-21T13:41:40.009Z,20.8
2023-03-21T13:42:41.968Z,20.7
2023-03-21T13:43:43.841Z,20.7
2023-03-21T13:44:45.755Z,20.8
2023-03-21T13:45:51.600Z,20.7
2023-03-21T13:46:55.173Z,20.7
2023-03-21T13:47:57.495Z,20.8
2023-03-21T13:49:00.780Z,20.7
2023-03-21T13:50:02.574Z,20.7
2023-03-21T13:51:04.332Z,20.7
2023-03-21T13:52:06.183Z,20.7
2023-03-21T13:53:08.033Z,20.6
2023-03-21T13:54:09.787Z,20.6
2023-03-21T13:55:11.792Z,20.6
2023-03-21T13:56:13.581Z,20.5
2023-03-21T13:57:15.443Z,20.6
2023-03-21T13:58:17.492Z,20.5
2023-03-21T13:59:19.232Z,20.5
2023-03-21T14:00:21.192Z,20.6
2023-03-21T14:01:23.269Z,20.5
2023-03-21T14:02:25.255Z,20.5
2023-03-21T14:03:26.944Z,20.5
2023-03-21T14:04:42.500Z,20.4
2023-03-21T14:06:06.648Z,20.4
2023-03-21T14:07:08.977Z,20.6
2023-03-21T14:08:24.995Z,20.7
2023-03-21T14:09:39.593Z,20.6
2023-03-21T14:10:41.519Z,20.5
2023-03-21T14:11:47.269Z,20.4
2023-03-21T14:12:49.118Z,20.4
2023-03-21T14:13:52.098Z,20.4
2023-03-21T14:14:55.173Z,20.4
2023-03-21T14:16:17.206Z,20.3
2023-03-21T14:17:19.154Z,20.5
2023-03-21T14:18:53.240Z,20.4
2023-03-21T14:19:57.769Z,20.4
2023-03-21T14:20:59.723Z,20.4
2023-03-21T14:22:05.064Z,20.4
2023-03-21T14:23:07.019Z,20.3
2023-03-21T14:24:09.028Z,20.3
2023-03-21T14:25:10.899Z,20.4
2023-03-21T14:26:12.878Z,20.4
2023-03-21T14:27:14.718Z,20.4
2023-03-21T14:28:16.664Z,20.5
2023-03-21T14:29:27.090Z,20.6
2023-03-21T14:30:30.511Z,20.5
2023-03-21T14:31:32.364Z,20.5
2023-03-21T14:32:34.615Z,20.4
2023-03-21T14:33:36.388Z,20.4